Time;durP1;ratioP1;P1;durP2;ratioP2;P2;SDS_P1;SDS_P2;PMS_P1;PMS_P2;Temp;Humidity;BMP_temperature;BMP_pressure;BME280_temperature;BME280_humidity;BME280_pressure;Samples;Min_cycle;Max_cycle;Signal;HPM_P1;HPM_P2
2022/05/21 00:00:20;;;;;;;18.35;5.50;;;;;;;;;;4718488;30;20426;-85
2022/05/21 00:02:46;;;;;;;7.45;4.35;;;;;;;;;;4733182;30;20059;-83
2022/05/21 00:05:13;;;;;;;5.43;3.65;;;;;;;;;;4733461;30;20063;-84
2022/05/21 00:07:39;;;;;;;9.18;5.03;;;;;;;;;;4732934;30;20055;-84
2022/05/21 00:10:07;;;;;;;7.55;4.35;;;;;;;;;;4732697;30;20064;-87
2022/05/21 00:12:34;;;;;;;6.25;4.07;;;;;;;;;;4733208;30;20095;-86
2022/05/21 00:15:00;;;;;;;11.77;5.07;;;;;;;;;;4733043;30;20065;-85
2022/05/21 00:17:26;;;;;;;6.50;4.68;;;;;;;;;;4732031;30;20069;-86
2022/05/21 00:19:52;;;;;;;10.20;5.28;;;;;;;;;;4729739;30;20181;-85
2022/05/21 00:22:18;;;;;;;11.07;5.10;;;;;;;;;;4701884;30;20060;-83
2022/05/21 00:24:44;;;;;;;7.47;4.57;;;;;;;;;;4706779;30;20057;-85
2022/05/21 00:27:11;;;;;;;9.38;4.82;;;;;;;;;;4720954;30;20052;-87
2022/05/21 00:29:37;;;;;;;12.45;5.68;;;;;;;;;;4715524;30;20063;-85
2022/05/21 00:32:04;;;;;;;10.35;4.88;;;;;;;;;;4738278;30;20120;-85
2022/05/21 00:34:30;;;;;;;8.48;5.90;;;;;;;;;;4738071;30;20131;-86
2022/05/21 00:36:56;;;;;;;11.60;5.72;;;;;;;;;;4737313;30;20049;-82
2022/05/21 00:39:22;;;;;;;11.38;6.63;;;;;;;;;;4738079;30;20056;-85
2022/05/21 00:41:50;;;;;;;10.48;6.25;;;;;;;;;;4738136;30;20044;-84
2022/05/21 00:44:16;;;;;;;10.73;6.82;;;;;;;;;;4737742;30;20542;-83
2022/05/21 00:46:43;;;;;;;15.60;8.23;;;;;;;;;;4736935;30;20052;-83
2022/05/21 00:49:11;;;;;;;15.55;8.23;;;;;;;;;;4731826;30;20041;-83
2022/05/21 00:51:39;;;;;;;17.48;7.90;;;;;;;;;;4705986;30;20057;-83
2022/05/21 00:54:06;;;;;;;16.95;8.50;;;;;;;;;;4705930;30;20085;-83
2022/05/21 00:56:34;;;;;;;15.63;9.05;;;;;;;;;;4705819;30;20503;-83
2022/05/21 01:01:48;;;;;;;20.85;9.68;;;;;;;;;;4720144;30;20140;-83
2022/05/21 01:04:14;;;;;;;15.60;10.30;;;;;;;;;;4705727;30;20053;-83
2022/05/21 01:06:40;;;;;;;20.25;11.82;;;;;;;;;;4705465;30;20088;-84
2022/05/21 01:09:07;;;;;;;15.38;12.15;;;;;;;;;;4732845;30;20053;-84
2022/05/21 01:11:33;;;;;;;22.33;12.02;;;;;;;;;;4723270;30;20053;-84
2022/05/21 01:13:59;;;;;;;19.13;11.77;;;;;;;;;;4737484;30;20143;-83
2022/05/21 01:16:25;;;;;;;18.70;12.35;;;;;;;;;;4737268;30;20063;-84
2022/05/21 01:18:51;;;;;;;27.95;13.95;;;;;;;;;;4722931;30;20060;-84
2022/05/21 01:21:17;;;;;;;20.63;13.70;;;;;;;;;;4737306;30;20056;-83
2022/05/21 01:23:43;;;;;;;19.98;12.05;;;;;;;;;;4721640;30;20186;-83
2022/05/21 01:26:20;;;;;;;21.45;13.35;;;;;;;;;;4722975;30;20056;-83
2022/05/21 01:28:46;;;;;;;22.20;14.23;;;;;;;;;;4721337;30;20098;-83
2022/05/21 01:31:13;;;;;;;24.35;13.90;;;;;;;;;;4735693;30;20142;-83
2022/05/21 01:33:40;;;;;;;24.67;13.43;;;;;;;;;;4737353;30;20044;-83
2022/05/21 01:36:07;;;;;;;28.58;14.80;;;;;;;;;;4718233;30;20052;-83
2022/05/21 01:38:34;;;;;;;25.95;14.25;;;;;;;;;;4734763;30;20144;-83
2022/05/21 01:41:00;;;;;;;28.33;14.73;;;;;;;;;;4734747;30;20106;-82
2022/05/21 01:46:12;;;;;;;22.77;13.43;;;;;;;;;;4734030;30;20067;-83
2022/05/21 01:48:38;;;;;;;21.23;13.13;;;;;;;;;;4720457;30;20457;-85
2022/05/21 01:51:06;;;;;;;26.30;14.00;;;;;;;;;;4734650;30;20055;-85
2022/05/21 01:53:34;;;;;;;28.73;15.07;;;11.70;99.90;;;;;;4720084;30;20053;-85
2022/05/21 01:56:00;;;;;;;24.38;14.10;;;11.70;99.90;;;;;;4733586;30;20414;-84
2022/05/21 01:58:27;;;;;;;20.73;13.93;;;;;;;;;;4719902;30;20511;-86
2022/05/21 02:00:54;;;;;;;17.15;13.75;;;;;;;;;;4734461;30;20506;-83
2022/05/21 02:03:20;;;;;;;25.13;13.95;;;;;;;;;;4734600;30;20056;-84
2022/05/21 02:05:46;;;;;;;30.63;15.20;;;;;;;;;;4733730;30;20084;-86
2022/05/21 02:08:13;;;;;;;23.25;11.98;;;;;;;;;;4719531;30;20045;-85
2022/05/21 02:10:39;;;;;;;23.65;12.68;;;;;;;;;;4734112;30;20048;-85
2022/05/21 02:13:05;;;;;;;26.25;12.98;;;;;;;;;;4719691;30;20784;-86
2022/05/21 02:15:31;;;;;;;25.02;13.32;;;;;;;;;;4733260;30;20108;-85
2022/05/21 02:17:57;;;;;;;19.17;12.15;;;12.40;99.90;;;;;;4733991;30;20544;-85
2022/05/21 02:20:23;;;;;;;26.95;12.85;;;;;;;;;;4734033;30;20052;-85
2022/05/21 02:22:49;;;;;;;18.42;11.43;;;;;;;;;;4733761;30;20200;-84
2022/05/21 02:25:16;;;;;;;19.60;11.02;;;;;;;;;;4718182;30;20052;-82
2022/05/21 02:27:43;;;;;;;24.20;11.23;;;12.50;99.90;;;;;;4735044;30;20049;-82
2022/05/21 02:30:09;;;;;;;26.38;11.00;;;;;;;;;;4735223;30;20045;-82
2022/05/21 02:32:35;;;;;;;19.67;10.20;;;;;;;;;;4735432;30;20059;-83
2022/05/21 02:35:01;;;;;;;30.27;10.25;;;;;;;;;;4718023;30;20159;-81
2022/05/21 02:40:13;;;;;;;18.55;9.48;;;;;;;;;;4734775;30;20469;-81
2022/05/21 02:42:48;;;;;;;21.40;9.27;;;;;;;;;;4719390;30;20533;-82
2022/05/21 02:45:14;;;;;;;17.88;9.43;;;;;;;;;;4730057;30;20048;-81
2022/05/21 02:47:40;;;;;;;19.17;8.50;;;12.90;99.90;;;;;;4733739;30;20044;-82
2022/05/21 02:50:07;;;;;;;21.70;8.10;;;12.60;99.90;;;;;;4733961;30;20131;-83
2022/05/21 02:52:33;;;;;;;18.25;8.88;;;;;;;;;;4733547;30;20049;-83
2022/05/21 02:54:59;;;;;;;14.60;7.20;;;;;;;;;;4732880;30;20060;-82
2022/05/21 02:57:26;;;;;;;18.27;8.57;;;;;;;;;;4718745;30;20916;-82
2022/05/21 02:59:52;;;;;;;29.98;8.70;;;;;;;;;;4733310;30;20065;-82
2022/05/21 03:02:18;;;;;;;20.52;7.53;;;12.70;99.90;;;;;;4733195;30;20045;-82
2022/05/21 03:04:45;;;;;;;23.08;7.03;;;;;;;;;;4718907;30;20056;-83
2022/05/21 03:07:11;;;;;;;20.63;6.57;;;;;;;;;;4729847;30;20052;-83
2022/05/21 03:12:22;;;;;;;25.42;5.65;;;;;;;;;;4733352;30;20421;-83
2022/05/21 03:14:48;;;;;;;16.60;5.70;;;;;;;;;;4732904;30;20052;-83
2022/05/21 03:17:14;;;;;;;16.63;5.70;;;;;;;;;;4732418;30;20056;-83
2022/05/21 03:19:40;;;;;;;19.60;6.43;;;;;;;;;;4733012;30;20136;-82
2022/05/21 03:22:06;;;;;;;13.80;5.00;;;;;;;;;;4733249;30;20114;-83
2022/05/21 03:24:32;;;;;;;14.98;5.10;;;;;;;;;;4732790;30;20072;-83
2022/05/21 03:26:58;;;;;;;8.15;3.75;;;;;;;;;;4731995;30;20502;-83
2022/05/21 03:29:25;;;;;;;19.13;5.43;;;;;;;;;;4713027;30;20045;-83
2022/05/21 03:31:51;;;;;;;11.90;5.40;;;;;;;;;;4701284;30;20091;-83
2022/05/21 03:34:17;;;;;;;24.30;6.30;;;;;;;;;;4700857;30;20089;-83
2022/05/21 03:36:44;;;;;;;30.67;4.93;;;;;;;;;;4705163;30;20139;-83
2022/05/21 03:39:10;;;;;;;19.25;5.50;;;;;;;;;;4732847;30;20120;-83
2022/05/21 03:41:36;;;;;;;16.50;4.95;;;;;;;;;;4732557;30;20508;-83
2022/05/21 03:44:02;;;;;;;16.25;5.13;;;;;;;;;;4732726;30;20056;-84
2022/05/21 03:46:28;;;;;;;10.60;5.00;;;;;;;;;;4732622;30;20045;-84
2022/05/21 03:48:54;;;;;;;10.88;5.20;;;;;;;;;;4731319;30;20064;-84
2022/05/21 03:51:20;;;;;;;19.83;5.72;;;;;;;;;;4732571;30;20048;-82
2022/05/21 03:53:47;;;;;;;17.45;5.20;;;;;;;;;;4732547;30;20056;-82
2022/05/21 03:56:13;;;;;;;20.75;5.43;;;;;;;;;;4730756;30;20048;-82
2022/05/21 03:58:39;;;;;;;10.30;4.28;;;;;;;;;;4700374;30;20057;-82
2022/05/21 04:01:05;;;;;;;12.82;5.55;;;;;;;;;;4729680;30;20110;-83
2022/05/21 04:03:33;;;;;;;11.90;4.90;;;;;;;;;;4700820;30;20064;-82
2022/05/21 04:05:59;;;;;;;18.40;4.40;;;;;;;;;;4700519;30;20103;-83
2022/05/21 04:08:25;;;;;;;19.00;4.75;;;;;;;;;;4710097;30;20057;-84
2022/05/21 04:10:51;;;;;;;14.55;4.97;;;;;;;;;;4700823;30;20057;-83
2022/05/21 04:13:18;;;;;;;12.02;3.83;;;;;;;;;;4730532;30;20495;-82
2022/05/21 04:15:45;;;;;;;18.63;5.43;;;;;;;;;;4732124;30;20064;-84
2022/05/21 04:18:11;;;;;;;14.90;5.13;;;;;;;;;;4732438;30;20068;-82
2022/05/21 04:20:37;;;;;;;12.27;3.47;;;;;;;;;;4732476;30;20099;-83
2022/05/21 04:23:03;;;;;;;13.50;4.32;;;;;;;;;;4731478;30;20067;-83
2022/05/21 04:25:30;;;;;;;7.28;3.22;;;;;;;;;;4732444;30;20127;-83
2022/05/21 04:27:56;;;;;;;12.48;3.88;;;;;;;;;;4732183;30;20064;-83
2022/05/21 04:30:28;;;;;;;9.93;4.05;;;;;;;;;;4732442;30;20135;-82
2022/05/21 04:32:54;;;;;;;10.70;3.22;;;;;;;;;;4732091;30;20049;-83
2022/05/21 04:35:21;;;;;;;8.88;3.08;;;;;;;;;;4714752;30;20052;-83
2022/05/21 04:37:47;;;;;;;13.77;3.65;;;;;;;;;;4714513;30;20057;-84
2022/05/21 04:40:16;;;;;;;7.78;3.53;;;;;;;;;;4714888;30;20052;-83
2022/05/21 04:42:42;;;;;;;9.77;2.75;;;;;;;;;;4725008;30;20056;-83
2022/05/21 04:45:09;;;;;;;14.48;3.83;;;13.20;99.90;;;;;;4732091;30;20048;-84
2022/05/21 04:47:35;;;;;;;9.20;2.92;;;;;;;;;;4732416;30;20064;-83
2022/05/21 04:50:01;;;;;;;20.55;3.80;;;;;;;;;;4732296;30;20132;-84
2022/05/21 04:52:27;;;;;;;11.35;3.72;;;;;;;;;;4729745;30;20045;-87
2022/05/21 04:54:54;;;;;;;14.43;3.50;;;;;;;;;;4714923;30;20141;-85
2022/05/21 04:57:20;;;;;;;8.60;3.22;;;;;;;;;;4714373;30;20140;-84
2022/05/21 04:59:46;;;;;;;10.77;3.28;;;;;;;;;;4714963;30;20137;-87
2022/05/21 05:02:13;;;;;;;17.48;3.45;;;13.30;99.90;;;;;;4715133;30;20454;-88
2022/05/21 05:04:39;;;;;;;7.75;2.85;;;;;;;;;;4728907;30;20102;-85
2022/05/21 05:07:09;;;;;;;9.63;3.22;;;;;;;;;;4733726;30;20052;-88
2022/05/21 05:09:40;;;;;;;10.23;3.95;;;13.30;99.90;;;;;;4732613;30;20064;-87
2022/05/21 05:12:07;;;;;;;15.02;4.25;;;;;;;;;;4734551;30;20056;-87
2022/05/21 05:14:33;;;;;;;9.23;3.55;;;;;;;;;;4734988;30;20126;-85
2022/05/21 05:16:59;;;;;;;15.77;3.75;;;;;;;;;;4734993;30;20057;-83
2022/05/21 05:19:25;;;;;;;8.95;2.70;;;;;;;;;;4735167;30;20057;-86
2022/05/21 05:21:51;;;;;;;14.75;3.28;;;;;;;;;;4735212;30;20128;-84
2022/05/21 05:24:17;;;;;;;15.93;3.42;;;;;;;;;;4734183;30;20118;-85
2022/05/21 05:26:43;;;;;;;12.55;4.32;;;;;;;;;;4733329;30;20063;-86
2022/05/21 05:29:09;;;;;;;15.75;3.70;;;;;;;;;;4734329;30;20048;-84
2022/05/21 05:31:36;;;;;;;11.88;3.72;;;;;;;;;;4734930;30;20053;-87
2022/05/21 05:34:02;;;;;;;7.28;2.95;;;;;;;;;;4735185;30;20053;-83
2022/05/21 05:36:28;;;;;;;11.88;2.72;;;;;;;;;;4718505;30;20091;-84
2022/05/21 05:38:57;;;;;;;12.85;2.92;;;;;;;;;;4719359;30;20584;-83
2022/05/21 05:41:24;;;;;;;15.30;3.70;;;;;;;;;;4734837;30;20052;-83
2022/05/21 05:43:52;;;;;;;14.95;3.42;;;;;;;;;;4734545;30;20056;-83
2022/05/21 05:46:18;;;;;;;9.35;2.63;;;;;;;;;;4733909;30;20049;-84
2022/05/21 05:48:44;;;;;;;13.45;3.97;;;;;;;;;;4734613;30;20048;-84
2022/05/21 05:51:10;;;;;;;13.45;3.67;;;;;;;;;;4734740;30;20403;-84
2022/05/21 05:53:36;;;;;;;13.25;3.17;;;;;;;;;;4734539;30;20221;-83
2022/05/21 05:56:02;;;;;;;13.80;3.08;;;;;;;;;;4734547;30;20045;-88
2022/05/21 06:01:13;;;;;;;13.43;3.13;;;;;;;;;;4734294;30;20105;-87
2022/05/21 06:03:39;;;;;;;9.85;2.92;;;;;;;;;;4731897;30;20584;-83
2022/05/21 06:06:06;;;;;;;11.48;3.03;;;;;;;;;;4718166;30;20048;-83
2022/05/21 06:08:32;;;;;;;9.68;3.40;;;;;;;;;;4702758;30;20396;-83
2022/05/21 06:10:59;;;;;;;12.13;3.22;;;;;;;;;;4718373;30;20060;-83
2022/05/21 06:13:25;;;;;;;11.90;3.88;;;;;;;;;;4725776;30;20527;-84
2022/05/21 06:15:51;;;;;;;14.48;2.65;;;;;;;;;;4728581;30;20471;-84
2022/05/21 06:18:20;;;;;;;15.18;3.45;;;;;;;;;;4720519;30;20065;-85
2022/05/21 06:20:48;;;;;;;16.13;3.88;;;;;;;;;;4736846;30;20049;-85
2022/05/21 06:23:14;;;;;;;20.65;3.10;;;;;;;;;;4723026;30;20102;-85
2022/05/21 06:25:41;;;;;;;12.40;3.63;;;;;;;;;;4721816;30;20052;-85
2022/05/21 06:28:07;;;;;;;12.43;3.50;;;;;;;;;;4735485;30;20431;-85
2022/05/21 06:30:35;;;;;;;7.85;3.47;;;13.90;99.90;;;;;;4719085;30;20110;-85
2022/05/21 06:33:16;;;;;;;16.10;4.45;;;;;;;;;;4733916;30;20417;-85
2022/05/21 06:35:43;;;;;;;12.55;3.22;;;;;;;;;;4717348;30;20075;-85
2022/05/21 06:38:09;;;;;;;10.10;3.03;;;;;;;;;;4732702;30;20099;-86
2022/05/21 06:40:35;;;;;;;8.23;3.10;;;;;;;;;;4733106;30;20052;-85
2022/05/21 06:43:01;;;;;;;16.30;3.35;;;;;;;;;;4730682;30;20402;-85
2022/05/21 06:45:31;;;;;;;10.68;2.90;;;;;;;;;;4717378;30;20052;-85
2022/05/21 06:48:05;;;;;;;10.63;3.63;;;;;;;;;;4717787;30;20048;-85
2022/05/21 06:50:31;;;;;;;11.40;4.07;;;;;;;;;;4717106;30;20088;-89
2022/05/21 06:52:57;;;;;;;8.98;3.25;;;;;;;;;;4733013;30;20045;-91
2022/05/21 06:55:23;;;;;;;13.20;3.20;;;;;;;;;;4718304;30;20087;-85
2022/05/21 06:57:50;;;;;;;10.68;3.13;;;14.20;99.90;;;;;;4732281;30;20059;-86
2022/05/21 07:00:17;;;;;;;12.65;3.42;;;;;;;;;;4732607;30;20067;-86
2022/05/21 07:02:44;;;;;;;8.25;3.05;;;;;;;;;;4716412;30;20045;-86
2022/05/21 07:07:56;;;;;;;7.07;3.35;;;;;;;;;;4732787;30;20140;-86
2022/05/21 07:10:24;;;;;;;10.65;2.60;;;;;;;;;;4717742;30;20068;-87
2022/05/21 07:12:50;;;;;;;12.80;3.20;;;;;;;;;;4731625;30;20465;-86
2022/05/21 07:15:20;;;;;;;16.10;3.70;;;;;;;;;;4729880;30;20044;-87
2022/05/21 07:17:46;;;;;;;11.68;3.33;;;;;;;;;;4704996;30;20049;-86
2022/05/21 07:20:17;;;;;;;11.63;3.05;;;;;;;;;;4710966;30;20143;-86
2022/05/21 07:22:44;;;;;;;8.38;2.95;;;;;;;;;;4730906;30;20052;-86
2022/05/21 07:25:13;;;;;;;6.63;2.83;;;14.50;99.90;;;;;;4730485;30;20076;-86
2022/05/21 07:27:39;;;;;;;11.60;2.85;;;;;;;;;;4746090;30;20102;-87
2022/05/21 07:30:05;;;;;;;14.52;3.13;;;;;;;;;;4732920;30;20049;-86
2022/05/21 07:32:32;;;;;;;9.40;2.53;;;;;;;;;;4731336;30;20131;-87
2022/05/21 07:35:06;;;;;;;10.70;2.97;;;14.70;99.90;;;;;;4718414;30;20457;-86
2022/05/21 07:37:33;;;;;;;8.60;2.80;;;;;;;;;;4731173;30;20049;-87
2022/05/21 07:39:59;;;;;;;13.27;3.95;;;;;;;;;;4716684;30;20060;-86
2022/05/21 07:42:25;;;;;;;10.32;2.50;;;;;;;;;;4715547;30;20037;-86
2022/05/21 07:44:51;;;;;;;8.40;2.95;;;;;;;;;;4715192;30;20055;-87
2022/05/21 07:47:22;;;;;;;10.93;2.88;;;;;;;;;;4717146;30;20044;-86
2022/05/21 07:49:49;;;;;;;10.32;2.70;;;;;;;;;;4717033;30;20057;-86
2022/05/21 07:52:15;;;;;;;10.20;2.90;;;;;;;;;;4717336;30;20045;-89
2022/05/21 07:54:41;;;;;;;10.95;3.20;;;;;;;;;;4733451;30;20048;-90
2022/05/21 07:57:07;;;;;;;9.25;4.05;;;;;;;;;;4731422;30;20064;-87
2022/05/21 07:59:33;;;;;;;12.82;2.67;;;;;;;;;;4718723;30;20128;-89
2022/05/21 08:01:59;;;;;;;11.32;2.85;;;;;;;;;;4718370;30;20044;-89
2022/05/21 08:04:26;;;;;;;11.48;3.10;;;;;;;;;;4732702;30;20131;-91
2022/05/21 08:06:52;;;;;;;5.75;2.70;;;;;;;;;;4731686;30;20058;-89
2022/05/21 08:09:18;;;;;;;7.30;3.08;;;;;;;;;;4719023;30;20080;-90
2022/05/21 08:11:44;;;;;;;11.25;3.15;;;;;;;;;;4718012;30;20610;-90
2022/05/21 08:14:10;;;;;;;15.63;3.50;;;;;;;;;;4734867;30;20045;-89
2022/05/21 08:16:36;;;;;;;5.53;3.05;;;;;;;;;;4750176;30;20063;-90
2022/05/21 08:19:02;;;;;;;10.13;3.92;;;;;;;;;;4720816;30;20044;-89
2022/05/21 08:21:28;;;;;;;10.98;3.13;;;14.90;99.90;;;;;;4735371;30;20047;-88
2022/05/21 08:26:56;;;;;;;6.65;2.75;;;14.60;99.90;;;;;;4734393;30;20204;-86
2022/05/21 08:29:33;;;;;;;12.73;3.95;;;15.00;99.90;;;;;;4720565;30;20052;-86
2022/05/21 08:32:04;;;;;;;14.90;3.92;;;15.00;99.90;;;;;;4723551;30;20052;-87
2022/05/21 08:34:31;;;;;;;7.53;3.72;;;;;;;;;;4734206;30;20056;-83
2022/05/21 08:36:57;;;;;;;7.15;2.65;;;;;;;;;;4734036;30;20053;-85
2022/05/21 08:39:23;;;;;;;16.75;3.35;;;;;;;;;;4734521;30;20135;-84
2022/05/21 08:41:51;;;;;;;15.82;4.53;;;;;;;;;;4734059;30;20056;-85
2022/05/21 08:44:39;;;;;;;8.65;2.40;;;15.50;99.90;;;;;;4733235;30;20059;-84
2022/05/21 08:47:05;;;;;;;9.32;2.35;;;;;;;;;;4732925;30;20127;-85
2022/05/21 08:49:37;;;;;;;7.45;3.20;;;;;;;;;;4721566;30;20076;-85
2022/05/21 08:52:07;;;;;;;9.48;2.90;;;;;;;;;;4740187;30;20048;-84
2022/05/21 08:54:43;;;;;;;9.90;2.92;;;;;;;;;;4753985;30;20044;-83
2022/05/21 08:57:17;;;;;;;9.10;3.30;;;15.40;99.90;;;;;;4738228;30;20094;-84
2022/05/21 08:59:53;;;;;;;14.52;2.15;;;15.60;99.90;;;;;;4738610;30;20056;-84
2022/05/21 09:02:27;;;;;;;10.93;2.30;;;15.50;99.90;;;;;;4738230;30;20051;-84
2022/05/21 09:04:53;;;;;;;13.88;2.85;;;;;;;;;;4753359;30;20048;-84
2022/05/21 09:07:23;;;;;;;8.52;2.33;;;15.40;99.90;;;;;;4738577;30;20117;-84
2022/05/21 09:09:52;;;;;;;11.98;3.88;;;;;;;;;;4738522;30;20788;-84
2022/05/21 09:12:19;;;;;;;9.38;2.88;;;;;;;;;;4736129;30;20056;-84
2022/05/21 09:14:49;;;;;;;9.95;2.78;;;15.50;99.90;;;;;;4737857;30;20064;-84
2022/05/21 09:17:20;;;;;;;7.45;2.35;;;;;;;;;;4722848;30;20076;-84
2022/05/21 09:19:50;;;;;;;13.63;2.70;;;15.60;99.90;;;;;;4736599;30;20055;-85
2022/05/21 09:22:19;;;;;;;8.45;2.58;;;15.50;99.90;;;;;;4723189;30;20433;-84
2022/05/21 09:24:54;;;;;;;12.70;3.35;;;15.50;99.90;;;;;;4737720;30;20048;-84
2022/05/21 09:27:43;;;;;;;9.07;2.85;;;15.40;99.90;;;;;;4723226;30;20075;-84
2022/05/21 09:30:21;;;;;;;8.63;2.25;;;;;;;;;;4733179;30;20076;-84
2022/05/21 09:32:52;;;;;;;7.72;2.60;;;15.40;99.90;;;;;;4738684;30;20052;-84
2022/05/21 09:35:32;;;;;;;10.38;2.78;;;15.30;99.90;;;;;;4737302;30;20063;-84
2022/05/21 09:38:14;;;;;;;8.93;2.65;;;15.40;99.90;;;;;;4722999;30;20052;-84
2022/05/21 09:40:40;;;;;;;7.07;2.65;;;;;;;;;;4738242;30;20049;-84
2022/05/21 09:46:16;;;;;;;5.70;2.78;;;;;;;;;;4737643;30;20049;-84
2022/05/21 09:48:43;;;;;;;5.38;2.47;;;;;;;;;;4721965;30;20502;-85
2022/05/21 09:51:21;;;;;;;17.90;2.60;;;;;;;;;;4720414;30;20048;-84
2022/05/21 09:53:47;;;;;;;6.82;2.40;;;15.50;99.90;;;;;;4724290;30;20521;-84
2022/05/21 09:56:30;;;;;;;11.00;2.90;;;15.60;99.90;;;;;;4737617;30;20044;-84
2022/05/21 09:59:15;;;;;;;9.20;2.47;;;15.70;99.90;;;;;;4730921;30;20563;-85
2022/05/21 10:01:54;;;;;;;7.28;2.42;;;15.60;99.90;;;;;;4721208;30;20114;-84
2022/05/21 10:04:28;;;;;;;9.40;2.60;;;15.70;99.90;;;;;;4736963;30;20122;-85
2022/05/21 10:07:09;;;;;;;8.52;2.47;;;15.90;99.90;;;;;;4722094;30;20047;-84
2022/05/21 10:12:33;;;;;;;6.38;2.15;;;15.90;99.90;;;;;;4745239;30;20105;-85
2022/05/21 10:14:59;;;;;;;6.78;2.17;;;;;;;;;;4745534;30;20533;-85
2022/05/21 10:17:25;;;;;;;9.63;2.63;;;;;;;;;;4731480;30;20112;-85
2022/05/21 10:20:09;;;;;;;15.15;2.75;;;;;;;;;;4731981;30;20052;-85
2022/05/21 10:22:59;;;;;;;11.38;3.00;;;16.20;99.90;;;;;;4742769;30;20067;-84
2022/05/21 10:25:34;;;;;;;7.07;2.75;;;16.20;99.90;;;;;;4724249;30;20568;-84
2022/05/21 10:28:19;;;;;;;14.82;2.50;;;16.10;99.90;;;;;;4723202;30;20087;-85
2022/05/21 10:30:58;;;;;;;9.52;2.10;;;;;;;;;;4738467;30;20051;-85
2022/05/21 10:33:42;;;;;;;4.45;1.73;;;;;;;;;;4727931;30;20079;-85
2022/05/21 10:36:40;;;;;;;10.20;1.80;;;16.00;99.90;;;;;;4721314;30;20051;-85
2022/05/21 10:39:06;;;;;;;7.50;2.58;;;;;;;;;;4716586;30;20057;-85
2022/05/21 10:41:32;;;;;;;6.63;2.17;;;;;;;;;;4721079;30;20095;-84
2022/05/21 10:43:58;;;;;;;6.80;2.15;;;;;;;;;;4721015;30;20049;-85
2022/05/21 10:46:35;;;;;;;7.75;2.50;;;;;;;;;;4707101;30;20426;-84
2022/05/21 10:49:13;;;;;;;6.43;2.38;;;16.30;99.90;;;;;;4739326;30;20072;-84
2022/05/21 10:51:49;;;;;;;9.75;2.55;;;16.50;99.90;;;;;;4729812;30;20392;-83
2022/05/21 10:54:29;;;;;;;11.20;3.00;;;16.10;99.90;;;;;;4723332;30;20090;-84
2022/05/21 10:56:58;;;;;;;5.72;2.20;;;;;;;;;;4737973;30;20097;-85
2022/05/21 10:59:27;;;;;;;6.60;2.67;;;;;;;;;;4753348;30;20147;-84
2022/05/21 11:02:34;;;;;;;7.78;2.42;;;16.50;99.90;;;;;;4726983;30;20052;-84
2022/05/21 11:05:28;;;;;;;7.85;2.50;;;16.70;99.90;;;;;;4723238;30;20052;-85
2022/05/21 11:08:10;;;;;;;6.97;2.63;;;16.80;99.90;;;;;;4723012;30;20048;-86
2022/05/21 11:10:40;;;;;;;4.90;2.40;;;;;;;;;;4737573;30;20102;-87
2022/05/21 11:13:16;;;;;;;6.63;2.00;;;16.70;99.90;;;;;;4713574;30;20411;-84
2022/05/21 11:15:53;;;;;;;10.95;2.40;;;16.60;99.90;;;;;;4719925;30;20069;-84
2022/05/21 11:18:29;;;;;;;6.72;2.15;;;16.80;99.90;;;;;;4720178;30;20052;-84
2022/05/21 11:21:13;;;;;;;5.22;2.10;;;16.40;99.90;;;;;;4720162;30;20072;-84
2022/05/21 11:24:03;;;;;;;8.60;2.03;;;16.60;99.90;;;;;;4731709;30;20060;-84
2022/05/21 11:26:55;;;;;;;10.13;2.42;;;16.40;99.90;;;;;;4723002;30;20048;-84
2022/05/21 11:29:33;;;;;;;7.40;2.40;;;16.40;99.90;;;;;;4737766;30;20414;-84
2022/05/21 11:37:49;;;;;;;7.07;2.00;;;16.30;99.90;;;;;;4719354;30;20118;-84
2022/05/21 11:41:24;;;;;;;10.90;3.17;;;16.60;99.90;;;;;;4704968;30;20131;-85
2022/05/21 11:46:57;;;;;;;10.50;2.70;;;16.60;99.90;;;;;;4737633;30;20064;-85
2022/05/21 11:49:27;;;;;;;11.57;3.10;;;;;;;;;;4737447;30;20063;-84
2022/05/21 11:51:53;;;;;;;10.25;3.05;;;;;;;;;;4737787;30;20080;-84
2022/05/21 11:54:47;;;;;;;12.57;2.47;;;16.80;99.90;;;;;;4737524;30;20426;-84
2022/05/21 11:57:29;;;;;;;10.30;3.25;;;;;;;;;;4737232;30;20117;-85
2022/05/21 11:59:55;;;;;;;9.38;2.67;;;;;;;;;;4736461;30;20071;-85
2022/05/21 12:02:23;;;;;;;10.23;3.65;;;;;;;;;;4737290;30;20040;-84
2022/05/21 12:04:55;;;;;;;9.90;1.83;;;17.00;99.90;;;;;;4737520;30;20063;-84
2022/05/21 12:07:40;;;;;;;11.48;2.58;;;17.30;99.90;;;;;;4722684;30;20344;-86
2022/05/21 12:10:19;;;;;;;11.38;2.40;;;;;;;;;;4736982;30;20059;-85
2022/05/21 12:13:18;;;;;;;5.10;1.85;;;17.30;99.90;;;;;;4718035;30;20055;-85
2022/05/21 12:15:50;;;;;;;5.03;2.45;;;17.40;99.90;;;;;;4635456;30;20054;-85
2022/05/21 12:18:28;;;;;;;12.27;2.30;;;;;;;;;;4660126;30;20058;-84
2022/05/21 12:20:55;;;;;;;5.75;1.92;;;;;;;;;;4644477;30;20058;-84
2022/05/21 12:23:51;;;;;;;11.75;3.42;;;17.30;99.90;;;;;;4648653;30;20094;-85
2022/05/21 12:26:24;;;;;;;7.25;1.92;;;;;;;;;;4600441;31;20071;-84
2022/05/21 12:29:02;;;;;;;10.63;1.80;;;17.20;99.90;;;;;;4615015;31;20465;-84
2022/05/21 12:31:28;;;;;;;7.20;1.90;;;;;;;;;;4614848;31;20059;-84
2022/05/21 12:34:08;;;;;;;6.88;2.50;;;16.90;99.90;;;;;;4628380;30;20518;-84
2022/05/21 12:36:37;;;;;;;5.93;1.70;;;;;;;;;;4612171;31;20070;-88
2022/05/21 12:39:05;;;;;;;4.63;1.80;;;17.20;99.90;;;;;;4642435;30;20063;-84
2022/05/21 12:41:39;;;;;;;7.38;2.60;;;17.20;99.90;;;;;;4631216;30;20129;-91
2022/05/21 12:44:05;;;;;;;5.75;2.20;;;;;;;;;;4645398;30;20066;-83
2022/05/21 12:46:35;;;;;;;5.72;1.48;;;17.50;99.90;;;;;;4616315;30;20078;-84
2022/05/21 12:49:09;;;;;;;6.65;1.63;;;17.30;99.90;;;;;;4612789;31;20044;-85
2022/05/21 12:51:41;;;;;;;6.88;1.73;;;17.20;99.90;;;;;;4644817;30;20062;-84
2022/05/21 12:54:20;;;;;;;6.40;1.95;;;17.00;99.90;;;;;;4692092;30;20330;-85
2022/05/21 12:56:46;;;;;;;7.22;2.42;;;;;;;;;;4713474;30;20508;-83
2022/05/21 12:59:22;;;;;;;6.38;2.10;;;17.20;99.90;;;;;;4735403;30;20056;-84
2022/05/21 13:01:59;;;;;;;6.25;2.78;;;;;;;;;;4719979;30;20056;-85
2022/05/21 13:04:35;;;;;;;14.32;5.55;;;17.30;99.90;;;;;;4749112;30;20064;-85
2022/05/21 13:07:05;;;;;;;10.75;2.05;;;17.10;99.90;;;;;;4749367;30;20127;-84
2022/05/21 13:09:35;;;;;;;6.38;2.30;;;17.30;99.90;;;;;;4717468;30;20055;-85
2022/05/21 13:12:02;;;;;;;7.35;2.28;;;;;;;;;;4742998;30;20056;-84
2022/05/21 13:14:34;;;;;;;9.52;2.47;;;17.20;99.90;;;;;;4729835;30;20140;-86
2022/05/21 13:17:01;;;;;;;6.65;2.05;;;17.00;99.90;;;;;;4734301;30;20087;-84
2022/05/21 13:19:31;;;;;;;4.60;1.55;;;;;;;;;;4729459;30;20064;-84
2022/05/21 13:22:11;;;;;;;7.38;1.95;;;16.90;99.90;;;;;;4727591;30;20136;-84
2022/05/21 13:24:37;;;;;;;11.32;2.88;;;;;;;;;;4719400;30;20060;-83
2022/05/21 13:27:09;;;;;;;5.28;2.13;;;17.40;99.90;;;;;;4735249;30;20136;-85
2022/05/21 13:29:36;;;;;;;8.55;2.20;;;17.30;99.90;;;;;;4727049;30;20368;-86
2022/05/21 13:32:14;;;;;;;7.45;2.30;;;;;;;;;;4735609;30;20384;-84
2022/05/21 13:34:40;;;;;;;6.13;1.95;;;;;;;;;;4732711;30;20414;-85
2022/05/21 13:37:06;;;;;;;4.20;1.85;;;;;;;;;;4755030;30;20052;-82
2022/05/21 13:39:35;;;;;;;10.02;2.78;;;17.80;99.90;;;;;;4753522;30;20089;-82
2022/05/21 13:42:11;;;;;;;5.00;2.42;;;18.00;99.90;;;;;;4744205;30;20094;-83
2022/05/21 13:44:39;;;;;;;10.98;2.38;;;18.00;99.90;;;;;;4722761;30;20075;-85
2022/05/21 13:47:11;;;;;;;4.35;1.83;;;18.00;99.90;;;;;;4755647;30;20052;-86
2022/05/21 13:49:40;;;;;;;7.50;2.30;;;18.00;99.90;;;;;;4724221;30;20079;-84
2022/05/21 13:52:09;;;;;;;10.43;3.00;;;18.20;99.90;;;;;;4753657;30;20594;-86
2022/05/21 13:54:35;;;;;;;6.75;2.00;;;;;;;;;;4739447;30;20134;-85
2022/05/21 13:57:18;;;;;;;7.40;3.00;;;18.50;99.90;;;;;;4724177;30;20048;-84
2022/05/21 14:00:14;;;;;;;13.90;2.20;;;18.20;99.90;;;;;;4738390;30;20060;-85
2022/05/21 14:02:47;;;;;;;6.35;1.67;;;18.00;99.90;;;;;;4684712;30;20164;-85
2022/05/21 14:05:34;;;;;;;7.78;2.60;;;18.00;99.90;;;;;;4697810;30;20065;-87
2022/05/21 14:08:13;;;;;;;5.60;1.98;;;17.80;99.90;;;;;;4699293;30;20054;-82
2022/05/21 14:10:47;;;;;;;10.48;3.13;;;17.60;99.90;;;;;;4683695;30;20111;-85
2022/05/21 14:13:46;;;;;;;7.65;2.08;;;17.70;99.90;;;;;;4684048;30;20057;-87
2022/05/21 14:16:32;;;;;;;7.20;2.15;;;17.30;99.90;;;;;;4684955;30;20151;-86
2022/05/21 14:19:05;;;;;;;7.50;2.15;;;17.60;99.90;;;;;;4669036;30;20057;-85
2022/05/21 14:21:32;;;;;;;6.80;2.28;;;;;;;;;;4684328;30;20061;-88
2022/05/21 14:24:16;;;;;;;7.78;2.25;;;17.40;99.90;;;;;;4683225;30;20499;-82
2022/05/21 14:26:58;;;;;;;4.78;1.92;;;;;;;;;;4670576;30;20161;-86
2022/05/21 14:29:48;;;;;;;16.73;4.33;;;17.40;99.90;;;;;;4669422;30;20131;-86
2022/05/21 14:32:20;;;;;;;3.90;1.88;;;;;;;;;;4634399;30;20468;-83
2022/05/21 14:35:20;;;;;;;9.38;2.47;;;17.10;99.90;;;;;;4634963;30;20058;-91
2022/05/21 14:37:52;;;;;;;10.63;3.10;;;17.20;99.90;;;;;;4618222;30;20066;-91
2022/05/21 14:40:18;;;;;;;7.53;2.05;;;;;;;;;;4675939;30;20551;-89
2022/05/21 14:42:46;;;;;;;13.43;2.90;;;17.00;99.90;;;;;;4687202;30;20052;-87
2022/05/21 14:45:21;;;;;;;3.15;1.92;;;16.80;99.90;;;;;;4688129;30;20053;-85
2022/05/21 14:47:54;;;;;;;6.93;2.35;;;;;;;;;;4687479;30;20061;-88